Time;durP1;ratioP1;P1;durP2;ratioP2;P2;SDS_P1;SDS_P2;PMS_P1;PMS_P2;Temp;Humidity;BMP_temperature;BMP_pressure;BME280_temperature;BME280_humidity;BME280_pressure;Samples;Min_cycle;Max_cycle;Signal;HPM_P1;HPM_P2
2023/12/25 00:02:01;;;;;;;13.40;1.90;;;;;;;;;;5093337;28;20064;-81
2023/12/25 00:04:27;;;;;;;12.30;1.38;;;;;;;;;;5076189;28;20056;-81
2023/12/25 00:06:53;;;;;;;14.10;1.88;;;;;;;;;;5077013;28;20043;-81
2023/12/25 00:09:20;;;;;;;10.55;1.63;;;;;;;;;;5076403;28;20486;-81
2023/12/25 00:11:46;;;;;;;13.68;1.35;;;;;;;;;;5092995;28;20063;-81
2023/12/25 00:14:12;;;;;;;10.65;1.40;;;;;;;;;;5075306;28;20040;-81
2023/12/25 00:16:40;;;;;;;11.45;1.90;;;;;;;;;;5092906;28;20080;-81
2023/12/25 00:19:07;;;;;;;10.25;1.33;;;;;;;;;;5093601;28;20055;-81
2023/12/25 00:21:33;;;;;;;9.40;1.20;;;;;;;;;;5093102;28;20048;-81
2023/12/25 00:23:59;;;;;;;15.63;1.40;;;;;;;;;;5076096;28;20048;-81
2023/12/25 00:26:25;;;;;;;12.65;1.77;;;;;;;;;;5076836;28;20055;-81
2023/12/25 00:28:51;;;;;;;8.85;1.60;;;;;;;;;;5076187;28;20467;-81
2023/12/25 00:31:17;;;;;;;9.60;1.77;;;;;;;;;;5092763;28;20060;-81
2023/12/25 00:33:43;;;;;;;12.98;2.13;;;;;;;;;;5093557;28;20131;-81
2023/12/25 00:36:11;;;;;;;12.20;1.20;;;;;;;;;;5075991;28;20079;-80
2023/12/25 00:38:37;;;;;;;11.50;1.45;;;;;;;;;;5059865;28;20493;-81
2023/12/25 00:41:03;;;;;;;10.18;1.15;;;;;;;;;;5092069;28;20498;-81
2023/12/25 00:43:29;;;;;;;11.30;1.70;;;;;;;;;;5092407;28;20480;-80
2023/12/25 00:45:55;;;;;;;13.13;1.42;;;;;;;;;;5075568;28;20435;-80
2023/12/25 00:48:21;;;;;;;14.90;2.25;;;;;;;;;;5093420;28;20102;-81
2023/12/25 00:50:47;;;;;;;13.13;1.85;;;;;;;;;;5093386;28;20059;-81
2023/12/25 00:53:13;;;;;;;13.43;2.30;;;;;;;;;;5076662;28;20040;-81
2023/12/25 00:55:39;;;;;;;16.25;2.30;;;;;;;;;;5076588;28;20075;-81
2023/12/25 00:58:05;;;;;;;13.38;2.10;;;;;;;;;;5092412;28;20131;-81
2023/12/25 01:00:31;;;;;;;15.23;2.00;;;;;;;;;;5092263;28;20040;-80
2023/12/25 01:02:57;;;;;;;12.65;1.50;;;;;;;;;;5075359;28;20142;-81
2023/12/25 01:05:23;;;;;;;16.65;1.77;;;;;;;;;;5075796;28;20060;-81
2023/12/25 01:07:50;;;;;;;13.18;1.73;;;;;;;;;;5092418;28;20044;-81
2023/12/25 01:10:16;;;;;;;10.43;1.88;;;;;;;;;;5075564;28;20060;-81
2023/12/25 01:12:42;;;;;;;14.38;1.45;;;;;;;;;;5092377;28;20056;-81
2023/12/25 01:15:08;;;;;;;10.45;1.52;;;;;;;;;;5075592;28;20040;-81
2023/12/25 01:17:34;;;;;;;12.05;1.20;;;;;;;;;;5075619;28;20087;-81
2023/12/25 01:20:00;;;;;;;10.70;1.40;;;;;;;;;;5093720;28;20040;-81
2023/12/25 01:22:26;;;;;;;12.15;1.75;;;;;;;;;;5076274;28;20058;-81
2023/12/25 01:24:52;;;;;;;11.07;1.40;;;;;;;;;;5094091;28;20119;-81
2023/12/25 01:27:18;;;;;;;11.75;1.30;;;;;;;;;;5095913;28;20044;-81
2023/12/25 01:29:44;;;;;;;11.35;1.80;;;;;;;;;;5095802;28;20499;-81
2023/12/25 01:32:10;;;;;;;11.25;1.67;;;;;;;;;;5095847;28;20044;-81
2023/12/25 01:34:36;;;;;;;10.40;1.70;;;;;;;;;;5078936;28;20059;-81
2023/12/25 01:37:04;;;;;;;11.05;1.45;;;;;;;;;;5095712;28;20054;-80
2023/12/25 01:39:30;;;;;;;11.68;1.38;;;;;;;;;;5095596;28;20040;-81
2023/12/25 01:41:56;;;;;;;12.35;1.52;;;;;;;;;;5078769;28;20060;-81
2023/12/25 01:44:22;;;;;;;11.90;1.67;;;;;;;;;;5078738;28;20067;-81
2023/12/25 01:46:48;;;;;;;14.82;1.65;;;;;;;;;;5095516;28;20043;-81
2023/12/25 01:49:14;;;;;;;11.13;1.52;;;;;;;;;;5078825;28;20043;-81
2023/12/25 01:51:40;;;;;;;13.65;2.03;;;;;;;;;;5095148;28;20086;-81
2023/12/25 01:54:07;;;;;;;16.15;2.45;;;;;;;;;;5078556;28;20543;-82
2023/12/25 01:56:34;;;;;;;8.93;1.00;;;;;;;;;;5078764;28;20059;-81
2023/12/25 01:59:02;;;;;;;14.10;2.20;;;;;;;;;;5095980;28;20048;-81
2023/12/25 02:01:28;;;;;;;12.85;2.45;;;;;;;;;;5062139;28;20048;-81
2023/12/25 02:03:54;;;;;;;11.38;1.52;;;;;;;;;;5095227;28;20097;-81
2023/12/25 02:06:20;;;;;;;10.85;1.35;;;;;;;;;;5095136;28;20052;-81
2023/12/25 02:08:46;;;;;;;13.00;1.92;;;;;;;;;;5095141;28;20063;-81
2023/12/25 02:11:13;;;;;;;8.52;1.17;;;;;;;;;;5095026;28;20593;-81
2023/12/25 02:13:39;;;;;;;12.00;1.40;;;;;;;;;;5095091;28;20081;-81
2023/12/25 02:16:05;;;;;;;11.38;1.67;;;;;;;;;;5095811;28;20051;-81
2023/12/25 02:18:31;;;;;;;14.02;1.58;;;;;;;;;;5094636;28;20048;-80
2023/12/25 02:20:57;;;;;;;15.50;1.75;;;;;;;;;;5094584;28;20404;-81
2023/12/25 02:23:29;;;;;;;12.85;1.65;;;;;;;;;;5095722;28;20062;-81
2023/12/25 02:25:56;;;;;;;8.63;1.40;;;;;;;;;;5095562;28;20372;-81
2023/12/25 02:28:22;;;;;;;10.82;1.23;;;;;;;;;;5077800;28;20040;-81
2023/12/25 02:30:48;;;;;;;10.90;1.60;;;;;;;;;;5078668;28;20067;-81
2023/12/25 02:33:15;;;;;;;9.35;1.33;;;;;;;;;;5077738;28;20139;-81
2023/12/25 02:35:41;;;;;;;14.60;1.45;;;;;;;;;;5093703;28;20411;-81
2023/12/25 02:38:07;;;;;;;11.07;1.35;;;;;;;;;;5061128;28;20063;-81
2023/12/25 02:40:35;;;;;;;7.80;1.15;;;;;;;;;;5077456;28;20040;-81
2023/12/25 02:43:01;;;;;;;8.75;1.33;;;;;;;;;;5094434;28;20135;-81
2023/12/25 02:45:27;;;;;;;6.50;1.10;;;;;;;;;;5095239;28;20135;-81
2023/12/25 02:47:53;;;;;;;11.18;1.48;;;;;;;;;;5077517;28;20048;-81
2023/12/25 02:50:19;;;;;;;12.00;1.42;;;;;;;;;;5094327;28;20054;-80
2023/12/25 02:52:45;;;;;;;11.55;1.08;;;;;;;;;;5094291;28;20460;-81
2023/12/25 02:55:11;;;;;;;9.02;1.05;;;;;;;;;;5077418;28;20062;-81
2023/12/25 02:57:37;;;;;;;10.00;1.27;;;;;;;;;;5078195;28;20436;-81
2023/12/25 03:00:03;;;;;;;9.55;1.33;;;;;;;;;;5093808;28;20036;-81
2023/12/25 03:02:30;;;;;;;7.20;0.60;;;;;;;;;;5093686;28;20056;-81
2023/12/25 03:04:56;;;;;;;8.93;0.80;;;;;;;;;;5094303;28;20036;-81
2023/12/25 03:07:22;;;;;;;11.77;1.25;;;;;;;;;;5077140;28;20391;-81
2023/12/25 03:09:48;;;;;;;7.70;1.17;;;;;;;;;;5077110;28;20048;-81
2023/12/25 03:12:14;;;;;;;10.07;1.17;;;;;;;;;;5094191;28;20048;-81
2023/12/25 03:14:43;;;;;;;9.52;0.85;;;;;;;;;;5093879;28;20048;-81
2023/12/25 03:17:09;;;;;;;11.20;0.80;;;;;;;;;;5093827;28;20396;-81
2023/12/25 03:19:36;;;;;;;10.10;0.90;;;;;;;;;;5093969;28;20082;-81
2023/12/25 03:22:02;;;;;;;7.65;0.98;;;;;;;;;;5094515;28;20048;-80
2023/12/25 03:24:28;;;;;;;9.73;0.98;;;;;;;;;;5076827;28;20054;-81
2023/12/25 03:26:54;;;;;;;7.93;0.75;;;;;;;;;;5093903;28;20048;-80
2023/12/25 03:29:20;;;;;;;7.88;0.93;;;;;;;;;;5093772;28;20048;-80
2023/12/25 03:31:46;;;;;;;8.43;0.70;;;;;;;;;;5094347;28;20050;-80
2023/12/25 03:34:18;;;;;;;10.70;0.90;;;;;;;;;;5094312;28;20048;-80
2023/12/25 03:36:44;;;;;;;6.80;0.60;;;;;;;;;;5093489;28;20052;-80
2023/12/25 03:39:10;;;;;;;5.82;0.75;;;;;;;;;;5076455;28;20047;-81
2023/12/25 03:41:36;;;;;;;8.38;0.82;;;;;;;;;;5076485;28;20139;-81
2023/12/25 03:44:03;;;;;;;6.15;0.70;;;;;;;;;;5076734;28;20210;-80
2023/12/25 03:46:29;;;;;;;7.32;0.70;;;;;;;;;;5093580;28;20051;-81
2023/12/25 03:48:55;;;;;;;11.98;1.42;;;;;;;;;;5093381;28;20052;-81
2023/12/25 03:51:21;;;;;;;9.52;0.77;;;;;;;;;;5093191;28;20090;-80
2023/12/25 03:53:47;;;;;;;8.90;1.30;;;;;;;;;;5076026;28;20496;-80
2023/12/25 03:56:17;;;;;;;9.38;1.50;;;;;;;;;;5093015;28;20044;-81
2023/12/25 03:58:43;;;;;;;7.68;0.85;;;;;;;;;;5093277;28;20036;-81
2023/12/25 04:01:10;;;;;;;6.28;0.88;;;;;;;;;;5092776;28;20043;-80
2023/12/25 04:03:36;;;;;;;7.47;0.60;;;;;;;;;;5092372;28;20048;-80
2023/12/25 04:06:03;;;;;;;7.95;0.60;;;;;;;;;;5093004;28;20056;-80
2023/12/25 04:08:29;;;;;;;7.38;0.73;;;;;;;;;;5093024;28;20040;-80
2023/12/25 04:10:55;;;;;;;7.78;0.63;;;;;;;;;;5093194;28;20058;-81
2023/12/25 04:13:21;;;;;;;8.23;0.82;;;;;;;;;;5093786;28;20048;-81
2023/12/25 04:15:47;;;;;;;5.82;0.80;;;;;;;;;;5092953;28;20087;-80
2023/12/25 04:18:13;;;;;;;7.43;0.82;;;;;;;;;;5059456;28;20052;-80
2023/12/25 04:20:39;;;;;;;7.97;0.47;;;;;;;;;;5075881;28;20127;-81
2023/12/25 04:23:05;;;;;;;4.80;0.50;;;;;;;;;;5092852;28;20075;-81
2023/12/25 04:25:31;;;;;;;6.80;0.47;;;;;;;;;;5092756;28;20048;-81
2023/12/25 04:27:57;;;;;;;6.55;0.63;;;;;;;;;;5075961;28;20048;-81
2023/12/25 04:30:23;;;;;;;6.45;0.50;;;;;;;;;;5092690;28;20052;-80
2023/12/25 04:32:50;;;;;;;6.47;0.60;;;;;;;;;;5093552;28;20570;-80
2023/12/25 04:35:16;;;;;;;7.05;0.57;;;;;;;;;;5092723;28;20403;-81
2023/12/25 04:37:42;;;;;;;8.20;0.57;;;;;;;;;;5076103;28;20144;-80
2023/12/25 04:40:08;;;;;;;8.15;0.40;;;;;;;;;;5076426;28;20452;-80
2023/12/25 04:42:34;;;;;;;10.45;1.08;;;;;;;;;;5092327;28;20080;-80
2023/12/25 04:45:00;;;;;;;8.15;1.05;;;;;;;;;;5092604;28;20044;-80
2023/12/25 04:47:26;;;;;;;7.10;0.52;;;;;;;;;;5092634;28;20044;-80
2023/12/25 04:49:52;;;;;;;5.00;0.50;;;;;;;;;;5075783;28;20040;-81
2023/12/25 04:52:18;;;;;;;5.88;0.50;;;;;;;;;;5093414;28;20040;-80
2023/12/25 04:54:44;;;;;;;6.65;0.60;;;;;;;;;;5092568;28;20047;-80
2023/12/25 04:57:10;;;;;;;5.45;0.43;;;;;;;;;;5092530;28;20066;-81
2023/12/25 04:59:36;;;;;;;9.10;0.50;;;;;;;;;;5093918;28;20084;-80
2023/12/25 05:02:03;;;;;;;4.80;0.43;;;;;;;;;;5079455;28;20056;-81
2023/12/25 05:04:31;;;;;;;8.15;0.70;;;;;;;;;;5096235;28;20399;-80
2023/12/25 05:06:58;;;;;;;9.43;0.70;;;;;;;;;;5096040;28;20550;-81
2023/12/25 05:09:24;;;;;;;13.27;0.65;;;;;;;;;;5079221;28;20044;-81
2023/12/25 05:11:50;;;;;;;8.35;0.88;;;;;;;;;;5079320;28;20452;-80
2023/12/25 05:14:16;;;;;;;8.65;0.68;;;;;;;;;;5079382;28;20399;-81
2023/12/25 05:16:42;;;;;;;9.88;0.50;;;;;;;;;;5062999;28;20374;-81
2023/12/25 05:19:10;;;;;;;10.05;0.82;;;;;;;;;;5096040;28;20464;-81
2023/12/25 05:21:36;;;;;;;9.82;0.82;;;;;;;;;;5095966;28;20039;-81
2023/12/25 05:24:02;;;;;;;7.95;0.90;;;;;;;;;;5095867;28;20051;-81
2023/12/25 05:26:28;;;;;;;9.68;1.08;;;;;;;;;;5079052;28;20044;-81
2023/12/25 05:28:54;;;;;;;8.00;0.85;;;;;;;;;;5079176;28;20048;-81
2023/12/25 05:31:21;;;;;;;9.02;1.35;;;;;;;;;;5095883;28;20055;-80
2023/12/25 05:33:47;;;;;;;7.57;0.73;;;;;;;;;;5062305;28;20182;-80
2023/12/25 05:36:13;;;;;;;7.53;0.82;;;;;;;;;;5078945;28;20480;-81
2023/12/25 05:38:39;;;;;;;6.43;0.90;;;;;;;;;;5078838;28;20079;-81
2023/12/25 05:41:05;;;;;;;7.93;1.25;;;;;;;;;;5096254;28;20113;-80
2023/12/25 05:43:31;;;;;;;12.90;1.02;;;;;;;;;;5079001;28;20333;-80
2023/12/25 05:45:57;;;;;;;13.73;1.15;;;;;;;;;;5096421;28;20433;-80
2023/12/25 05:48:23;;;;;;;9.43;0.85;;;;;;;;;;5096385;28;20434;-80
2023/12/25 05:50:49;;;;;;;10.88;0.98;;;;;;;;;;5095546;28;20521;-80
2023/12/25 05:53:15;;;;;;;6.05;0.93;;;;;;;;;;5078419;28;20476;-80
2023/12/25 05:55:41;;;;;;;9.25;1.00;;;;;;;;;;5095438;28;20396;-80
2023/12/25 05:58:07;;;;;;;9.15;0.90;;;;;;;;;;5078543;28;20086;-81
2023/12/25 06:00:33;;;;;;;9.93;1.52;;;;;;;;;;5095040;28;20062;-80
2023/12/25 06:02:59;;;;;;;7.90;1.10;;;;;;;;;;5095072;28;20105;-80
2023/12/25 06:05:25;;;;;;;9.85;1.20;;;;;;;;;;5078450;28;20381;-81
2023/12/25 06:07:51;;;;;;;10.43;0.93;;;;;;;;;;5061805;28;20052;-80
2023/12/25 06:10:17;;;;;;;9.82;1.08;;;;;;;;;;5094358;28;20044;-80
2023/12/25 06:12:43;;;;;;;14.73;1.33;;;;;;;;;;5095444;28;20044;-81
2023/12/25 06:15:10;;;;;;;8.60;1.00;;;;;;;;;;5078219;28;20051;-81
2023/12/25 06:17:36;;;;;;;11.75;1.40;;;;;;;;;;5078242;28;20494;-80
2023/12/25 06:20:04;;;;;;;13.40;1.27;;;;;;;;;;5094825;28;20048;-81
2023/12/25 06:22:30;;;;;;;10.15;1.00;;;;;;;;;;5061427;28;20052;-81
2023/12/25 06:24:56;;;;;;;7.32;0.60;;;;;;;;;;5094834;28;20475;-81
2023/12/25 06:27:23;;;;;;;11.77;1.13;;;;;;;;;;5078028;28;20043;-80
2023/12/25 06:29:49;;;;;;;10.25;1.10;;;;;;;;;;5077586;28;20127;-80
2023/12/25 06:32:15;;;;;;;8.77;0.80;;;;;;;;;;5078798;28;20139;-80
2023/12/25 06:34:41;;;;;;;10.07;0.70;;;;;;;;;;5077939;28;20044;-81
2023/12/25 06:37:09;;;;;;;9.75;1.35;;;;;;;;;;5094639;28;20478;-80
2023/12/25 06:39:35;;;;;;;7.40;0.70;;;;;;;;;;5094874;28;20039;-81
2023/12/25 06:42:01;;;;;;;6.03;0.60;;;;;;;;;;5078070;28;20101;-81
2023/12/25 06:44:27;;;;;;;7.03;0.73;;;;;;;;;;5094850;28;20079;-81
2023/12/25 06:46:53;;;;;;;7.25;0.90;;;;;;;;;;5077777;28;20040;-81
2023/12/25 06:49:19;;;;;;;8.98;0.95;;;;;;;;;;5094528;28;20047;-80
2023/12/25 06:51:46;;;;;;;7.45;0.80;;;;;;;;;;5094152;28;20074;-81
2023/12/25 06:54:12;;;;;;;8.70;0.85;;;;;;;;;;5094257;28;20144;-81
2023/12/25 06:56:38;;;;;;;7.57;0.90;;;;;;;;;;5094301;28;20170;-81
2023/12/25 06:59:04;;;;;;;9.75;1.35;;;;;;;;;;5094247;28;20043;-80
2023/12/25 07:01:32;;;;;;;12.07;0.90;;;;;;;;;;5076795;28;20110;-81
2023/12/25 07:03:58;;;;;;;9.73;0.80;;;;;;;;;;5097568;28;20066;-80
2023/12/25 07:06:24;;;;;;;10.35;1.20;;;;;;;;;;5097463;28;20044;-81
2023/12/25 07:08:50;;;;;;;10.32;0.77;;;;;;;;;;5080667;28;20502;-80
2023/12/25 07:11:16;;;;;;;8.35;0.98;;;;;;;;;;5097301;28;20043;-81
2023/12/25 07:13:42;;;;;;;5.43;0.65;;;;;;;;;;5097374;28;20494;-81
2023/12/25 07:16:09;;;;;;;5.53;0.40;;;;;;;;;;5097356;28;20082;-81
2023/12/25 07:18:35;;;;;;;9.27;1.00;;;;;;;;;;5098088;28;20460;-80
2023/12/25 07:21:01;;;;;;;8.98;0.70;;;;;;;;;;5080966;28;20035;-80
2023/12/25 07:23:27;;;;;;;10.27;0.98;;;;;;;;;;5080190;28;20134;-80
2023/12/25 07:25:54;;;;;;;11.63;0.95;;;;;;;;;;5097171;28;20036;-80
2023/12/25 07:28:21;;;;;;;7.45;0.75;;;;;;;;;;5096650;28;20130;-81
2023/12/25 07:30:47;;;;;;;9.07;0.65;;;;;;;;;;5096557;28;20059;-80
2023/12/25 07:33:13;;;;;;;7.47;0.70;;;;;;;;;;5080077;28;20076;-80
2023/12/25 07:35:39;;;;;;;9.20;0.80;;;;;;;;;;5096936;28;20081;-80
2023/12/25 07:38:05;;;;;;;8.15;0.90;;;;;;;;;;5096864;28;20506;-80
2023/12/25 07:40:32;;;;;;;9.05;0.88;;;;;;;;;;5096635;28;20383;-80
2023/12/25 07:42:59;;;;;;;8.18;0.60;;;;;;;;;;5097297;28;20399;-80
2023/12/25 07:45:25;;;;;;;9.07;0.80;;;;;;;;;;5079887;28;20130;-80
2023/12/25 07:47:51;;;;;;;8.02;0.70;;;;;;;;;;5097499;28;20047;-80
2023/12/25 07:50:17;;;;;;;6.57;0.80;;;;;;;;;;5096659;28;20051;-81
2023/12/25 07:52:43;;;;;;;6.00;0.70;;;;;;;;;;5097429;28;20494;-80
2023/12/25 07:55:09;;;;;;;8.13;0.93;;;;;;;;;;5096628;28;20051;-80
2023/12/25 07:57:35;;;;;;;9.13;0.73;;;;;;;;;;5080569;28;20048;-80
2023/12/25 08:00:02;;;;;;;8.18;0.50;;;;;;;;;;5096402;28;20138;-80
2023/12/25 08:02:28;;;;;;;9.25;0.77;;;;;;;;;;5080117;28;20070;-80
2023/12/25 08:04:54;;;;;;;9.23;0.93;;;;;;;;;;5079702;28;20058;-80
2023/12/25 08:07:20;;;;;;;6.05;0.57;;;;;;;;;;5096514;28;20533;-80
2023/12/25 08:09:47;;;;;;;6.90;0.60;;;;;;;;;;5096403;28;20558;-80
2023/12/25 08:12:14;;;;;;;6.10;0.60;;;;;;;;;;5079864;28;20066;-80
2023/12/25 08:14:41;;;;;;;7.40;0.70;;;;;;;;;;5096063;28;20096;-80
2023/12/25 08:17:07;;;;;;;5.97;0.90;;;;;;;;;;5080339;28;20096;-80
2023/12/25 08:19:33;;;;;;;8.20;0.60;;;;;;;;;;5080336;28;20058;-80
2023/12/25 08:21:59;;;;;;;7.38;0.60;;;;;;;;;;5095989;28;20092;-80
2023/12/25 08:24:25;;;;;;;5.10;0.50;;;;;;;;;;5095944;28;20051;-80
2023/12/25 08:26:52;;;;;;;4.93;0.40;;;;;;;;;;5096018;28;20046;-81
2023/12/25 08:29:19;;;;;;;6.28;0.70;;;;;;;;;;5096016;28;20044;-80
2023/12/25 08:31:45;;;;;;;5.10;0.63;;;;;;;;;;5078994;28;20051;-80
2023/12/25 08:34:11;;;;;;;6.88;0.73;;;;;;;;;;5097290;28;20463;-80
2023/12/25 08:36:37;;;;;;;6.88;0.50;;;;;;;;;;5100313;28;20039;-81
2023/12/25 08:39:04;;;;;;;5.70;0.63;;;;;;;;;;5083365;28;20092;-80
2023/12/25 08:41:30;;;;;;;8.30;0.65;;;;;;;;;;5099948;28;20126;-79
2023/12/25 08:43:56;;;;;;;6.57;0.70;;;;;;;;;;5100139;28;20081;-80
2023/12/25 08:46:23;;;;;;;4.38;0.60;;;;;;;;;;5100160;28;20131;-79
2023/12/25 08:48:49;;;;;;;9.00;0.95;;;;;;;;;;5100143;28;20483;-79
2023/12/25 08:51:15;;;;;;;7.28;0.65;;;;;;;;;;5100147;28;20047;-79
2023/12/25 08:53:42;;;;;;;9.75;0.85;;;;;;;;;;5099954;28;20083;-79
2023/12/25 08:56:08;;;;;;;8.57;1.00;;;;;;;;;;5099891;28;20051;-79
2023/12/25 08:58:35;;;;;;;12.10;0.95;;;;;;;;;;5117816;28;20083;-80
2023/12/25 09:01:02;;;;;;;10.10;0.98;;;;;;;;;;5099639;28;20047;-79
2023/12/25 09:03:28;;;;;;;7.88;0.98;;;;;;;;;;5082495;28;20056;-79
2023/12/25 09:05:54;;;;;;;8.48;0.68;;;;;;;;;;5099856;28;20131;-79
2023/12/25 09:08:23;;;;;;;9.52;0.77;;;;;;;;;;5099738;28;20051;-79
2023/12/25 09:10:49;;;;;;;8.52;0.70;;;;;;;;;;5083475;28;20051;-79
2023/12/25 09:13:16;;;;;;;8.85;0.90;;;;;;;;;;5099666;28;20054;-79
2023/12/25 09:15:42;;;;;;;6.60;1.10;;;;;;;;;;5099638;28;20054;-79
2023/12/25 09:18:08;;;;;;;5.28;0.70;;;;;;;;;;5099339;28;20039;-79
2023/12/25 09:20:34;;;;;;;9.98;0.98;;;;;;;;;;5099369;28;20086;-79
2023/12/25 09:23:00;;;;;;;9.45;1.02;;;;;;;;;;5099513;28;20044;-79
2023/12/25 09:25:26;;;;;;;11.48;1.25;;;;;;;;;;5099509;28;20443;-79
2023/12/25 09:27:52;;;;;;;11.13;1.00;;;;;;;;;;5082769;28;20047;-79
2023/12/25 09:30:18;;;;;;;9.52;0.80;;;;;;;;;;5117278;28;20084;-79
2023/12/25 09:32:44;;;;;;;10.40;0.90;;;;;;;;;;5099076;28;20464;-79
2023/12/25 09:35:12;;;;;;;7.75;0.85;;;;;;;;;;5082708;28;20498;-79
2023/12/25 09:37:38;;;;;;;9.98;0.90;;;;;;;;;;5082591;28;20043;-78
2023/12/25 09:40:05;;;;;;;10.88;0.70;;;;;;;;;;5099875;28;20043;-79
2023/12/25 09:42:31;;;;;;;7.85;1.23;;;;;;;;;;5083054;28;20051;-79
2023/12/25 09:44:57;;;;;;;13.02;1.15;;;;;;;;;;5098730;28;20059;-79
2023/12/25 09:47:23;;;;;;;11.50;1.05;;;;;;;;;;5082488;28;20054;-79
2023/12/25 09:49:50;;;;;;;12.02;1.30;;;;;;;;;;5099857;28;20081;-79
2023/12/25 09:52:17;;;;;;;12.93;1.05;;;;;;;;;;5099750;28;20537;-79
2023/12/25 09:54:44;;;;;;;10.48;0.73;;;;;;;;;;5099175;28;20065;-79
2023/12/25 09:57:11;;;;;;;7.57;0.80;;;;;;;;;;5099053;28;20055;-79
2023/12/25 09:59:37;;;;;;;8.48;1.08;;;;;;;;;;5098829;28;20530;-79
2023/12/25 10:02:05;;;;;;;10.07;0.90;;;;;;;;;;5098760;28;20055;-79
2023/12/25 10:04:33;;;;;;;10.52;0.93;;;;;;;;;;5098660;28;20096;-79
2023/12/25 10:06:59;;;;;;;8.40;0.93;;;;;;;;;;5098902;28;20104;-79
2023/12/25 10:09:25;;;;;;;11.38;1.00;;;;;;;;;;5099495;28;20048;-79
2023/12/25 10:11:51;;;;;;;11.88;1.25;;;;;;;;;;5098569;28;20085;-79
2023/12/25 10:14:17;;;;;;;7.88;1.38;;;;;;;;;;5081319;28;20055;-80
2023/12/25 10:16:43;;;;;;;11.65;1.08;;;;;;;;;;5081671;28;20047;-79
2023/12/25 10:19:11;;;;;;;11.32;1.27;;;;;;;;;;5098423;28;20050;-79
2023/12/25 10:21:41;;;;;;;6.85;0.75;;;;;;;;;;5081536;28;20075;-79
2023/12/25 10:24:17;;;;;;;10.27;1.25;;;;;;;;;;5099162;28;20405;-79
2023/12/25 10:26:46;;;;;;;10.80;1.25;;;;;;;;;;5098542;28;20086;-79
2023/12/25 10:29:13;;;;;;;12.50;1.77;;;;;;;;;;5098656;28;20063;-79
2023/12/25 10:31:40;;;;;;;9.68;0.82;;;;;;;;;;5098386;28;20048;-79
2023/12/25 10:34:06;;;;;;;10.85;0.95;;;;;;;;;;5098144;28;20495;-80
2023/12/25 10:36:32;;;;;;;11.60;0.77;;;;;;;;;;5081238;28;20058;-79
2023/12/25 10:38:59;;;;;;;9.77;0.80;;;;;;;;;;5081065;28;20131;-81
2023/12/25 10:41:27;;;;;;;7.38;0.60;;;;;;;;;;5097979;28;20355;-81
2023/12/25 10:43:54;;;;;;;12.30;1.00;;;;;;;;;;5098071;28;20074;-79
2023/12/25 10:46:24;;;;;;;4.70;0.50;;;;;;;;;;5097662;28;20395;-79
2023/12/25 10:48:51;;;;;;;10.80;0.88;;;;;;;;;;5097762;28;20050;-80
2023/12/25 10:51:21;;;;;;;9.32;0.95;;;;;;;;;;5097405;28;20479;-79
2023/12/25 10:53:50;;;;;;;10.85;1.23;;;;;;;;;;5097545;28;20100;-80
2023/12/25 10:56:18;;;;;;;8.68;0.90;;;;;;;;;;5097626;28;20130;-79
2023/12/25 10:58:44;;;;;;;8.88;0.70;;;;;;;;;;5097069;28;20548;-79
2023/12/25 11:01:10;;;;;;;9.10;1.33;;;;;;;;;;5080602;28;20039;-79
2023/12/25 11:03:36;;;;;;;13.02;0.93;;;;;;;;;;5080340;28;20061;-79
2023/12/25 11:06:04;;;;;;;12.30;0.65;;;;;;;;;;5098338;28;20349;-79
2023/12/25 11:08:30;;;;;;;10.70;0.82;;;;;;;;;;5081317;28;20051;-78
2023/12/25 11:10:56;;;;;;;10.27;0.80;;;;;;;;;;5098162;28;20086;-80
2023/12/25 11:13:23;;;;;;;10.50;0.90;;;;;;;;;;5097395;28;20056;-79
2023/12/25 11:15:49;;;;;;;8.38;0.75;;;;;;;;;;5097303;28;20422;-79
2023/12/25 11:18:18;;;;;;;8.40;1.00;;;;;;;;;;5097580;28;20138;-79
2023/12/25 11:21:05;;;;;;;7.15;0.70;;;;;;;;;;5097911;28;20047;-79
2023/12/25 11:23:31;;;;;;;4.30;0.70;;;;;;;;;;5115375;28;20056;-79
2023/12/25 11:25:59;;;;;;;10.15;0.77;;;;;;;;;;5080269;28;20445;-79
2023/12/25 11:28:25;;;;;;;11.15;1.17;;;;;;;;;;5096941;28;20044;-79
2023/12/25 11:30:51;;;;;;;10.90;1.13;;;;;;;;;;5097035;28;20050;-80
2023/12/25 11:33:20;;;;;;;8.85;1.27;;;;;;;;;;5097034;28;20043;-80
2023/12/25 11:35:46;;;;;;;6.10;0.70;;;;;;;;;;5114925;28;20146;-80
2023/12/25 11:38:19;;;;;;;9.95;1.10;;;;;;;;;;5096883;28;20040;-79
2023/12/25 11:40:51;;;;;;;7.65;0.77;;;;;;;;;;5097530;28;20035;-79
2023/12/25 11:43:21;;;;;;;9.15;0.70;;;;;;;;;;5096839;28;20160;-79
2023/12/25 11:45:50;;;;;;;8.27;0.73;;;;;;;;;;5096840;28;20083;-79
2023/12/25 11:48:16;;;;;;;9.02;0.68;;;;;;;;;;5096732;28;20098;-79
2023/12/25 11:50:42;;;;;;;10.20;0.80;;;;;;;;;;5096689;28;20502;-80
2023/12/25 11:53:08;;;;;;;6.95;0.88;;;;;;;;;;5096694;28;20130;-79
2023/12/25 11:55:36;;;;;;;9.55;0.98;;;;;;;;;;5096675;28;20039;-79
2023/12/25 11:58:03;;;;;;;9.20;0.90;;;;;;;;;;5096541;28;20055;-79
2023/12/25 12:00:33;;;;;;;7.68;0.90;;;;;;;;;;5096280;28;20138;-79
2023/12/25 12:02:59;;;;;;;9.80;0.90;;;;;;;;;;5096372;28;20078;-79
2023/12/25 12:05:27;;;;;;;11.63;1.00;;;;;;;;;;5096752;28;20043;-79
2023/12/25 12:07:53;;;;;;;8.25;1.20;;;;;;;;;;5096060;28;20048;-79
2023/12/25 12:10:19;;;;;;;12.43;1.33;;;;;;;;;;5096465;28;20051;-79
2023/12/25 12:12:45;;;;;;;6.60;0.77;;;;;;;;;;5079589;28;20058;-79
2023/12/25 12:15:12;;;;;;;6.13;0.90;;;;;;;;;;5097231;28;20040;-79
2023/12/25 12:17:39;;;;;;;9.80;1.15;;;;;;;;;;5114289;28;20368;-79
2023/12/25 12:20:06;;;;;;;11.90;1.42;;;;;;;;;;5095941;28;20055;-79
2023/12/25 12:22:35;;;;;;;6.43;1.13;;;;;;;;;;5097137;28;20047;-79
2023/12/25 12:25:14;;;;;;;8.02;1.00;;;;;;;;;;5096232;28;20488;-79
2023/12/25 12:27:40;;;;;;;9.02;0.88;;;;;;;;;;5096205;28;20043;-79
2023/12/25 12:30:07;;;;;;;8.07;0.88;;;;;;;;;;5096078;28;20043;-79
2023/12/25 12:32:34;;;;;;;8.05;0.95;;;;;;;;;;5095981;28;20047;-80
2023/12/25 12:35:00;;;;;;;6.65;0.80;;;;;;;;;;5080198;28;20052;-79
2023/12/25 12:37:26;;;;;;;9.68;0.85;;;;;;;;;;5096145;28;20138;-80
2023/12/25 12:39:53;;;;;;;5.75;0.80;;;;;;;;;;5096204;28;20104;-80
2023/12/25 12:42:19;;;;;;;12.95;1.05;;;;;;;;;;5079326;28;20558;-80
2023/12/25 12:44:52;;;;;;;5.60;0.73;;;;;;;;;;5079282;28;20433;-79
2023/12/25 12:47:18;;;;;;;8.35;1.30;;;;;;;;;;5096843;28;20047;-79
2023/12/25 12:49:44;;;;;;;7.82;1.00;;;;;;;;;;5096082;28;20069;-79
2023/12/25 12:52:11;;;;;;;8.63;1.10;;;;;;;;;;5080060;28;20105;-80
2023/12/25 12:54:37;;;;;;;6.35;1.55;;;;;;;;;;5095960;28;20079;-80
2023/12/25 12:57:03;;;;;;;9.43;1.35;;;;;;;;;;5079039;28;20046;-79
2023/12/25 12:59:29;;;;;;;9.13;1.17;;;;;;;;;;5095765;28;20550;-79
2023/12/25 13:01:55;;;;;;;7.43;1.15;;;;;;;;;;5095716;28;20044;-80
2023/12/25 13:04:22;;;;;;;7.13;1.58;;;;;;;;;;5079969;28;20051;-79
2023/12/25 13:06:48;;;;;;;7.05;1.23;;;;;;;;;;5095743;28;20047;-81
2023/12/25 13:09:14;;;;;;;6.85;1.08;;;;;;;;;;5095386;28;20043;-80
2023/12/25 13:11:40;;;;;;;6.72;1.13;;;;;;;;;;5095741;28;20044;-80
2023/12/25 13:14:06;;;;;;;9.85;1.98;;;;;;;;;;5095786;28;20047;-80
2023/12/25 13:16:33;;;;;;;8.65;1.23;;;;;;;;;;5078618;28;20087;-80
2023/12/25 13:18:59;;;;;;;9.48;1.67;;;;;;;;;;5096553;28;20126;-80
2023/12/25 13:21:25;;;;;;;5.53;0.80;;;;;;;;;;5098346;28;20479;-81
2023/12/25 13:23:51;;;;;;;9.75;1.20;;;;;;;;;;5083209;28;20040;-80
2023/12/25 13:26:17;;;;;;;11.55;1.10;;;;;;;;;;5099461;28;20055;-82
2023/12/25 13:28:43;;;;;;;6.75;0.90;;;;;;;;;;5082366;28;20134;-80
2023/12/25 13:31:09;;;;;;;6.80;0.95;;;;;;;;;;5082661;28;20437;-81
2023/12/25 13:33:39;;;;;;;9.18;1.02;;;;;;;;;;5099835;28;20121;-81
2023/12/25 13:36:06;;;;;;;7.70;1.08;;;;;;;;;;5083264;28;20526;-80
2023/12/25 13:38:32;;;;;;;8.40;0.88;;;;;;;;;;5082315;28;20054;-80
2023/12/25 13:40:58;;;;;;;10.23;1.00;;;;;;;;;;5082921;28;20044;-80
2023/12/25 13:43:25;;;;;;;7.45;0.80;;;;;;;;;;5099457;28;20383;-80
2023/12/25 13:45:51;;;;;;;8.27;0.90;;;;;;;;;;5098823;28;20054;-80
2023/12/25 13:48:17;;;;;;;11.38;0.70;;;;;;;;;;5117105;28;20079;-79
2023/12/25 13:50:43;;;;;;;8.07;0.85;;;;;;;;;;5082938;28;20065;-80
2023/12/25 13:53:09;;;;;;;8.15;0.50;;;;;;;;;;5099455;28;20058;-80
2023/12/25 13:55:35;;;;;;;9.90;0.90;;;;;;;;;;5081685;28;20040;-80
2023/12/25 13:58:01;;;;;;;11.73;0.90;;;;;;;;;;5098846;28;20391;-80
2023/12/25 14:00:27;;;;;;;6.28;0.60;;;;;;;;;;5099214;28;20491;-80
2023/12/25 14:02:55;;;;;;;8.30;0.85;;;;;;;;;;5082001;28;20087;-80
2023/12/25 14:05:21;;;;;;;6.63;0.70;;;;;;;;;;5082561;28;20047;-80
2023/12/25 14:07:47;;;;;;;11.00;0.60;;;;;;;;;;5098459;28;20079;-80
2023/12/25 14:10:13;;;;;;;5.47;0.55;;;;;;;;;;5099411;28;20105;-80
2023/12/25 14:12:39;;;;;;;8.70;0.85;;;;;;;;;;5098625;28;20089;-80
2023/12/25 14:15:06;;;;;;;8.70;1.10;;;;;;;;;;5098505;28;20056;-80
2023/12/25 14:17:32;;;;;;;4.25;0.55;;;;;;;;;;5081433;28;20138;-80
2023/12/25 14:19:58;;;;;;;6.88;0.65;;;;;;;;;;5098288;28;20044;-80
2023/12/25 14:22:24;;;;;;;7.22;0.60;;;;;;;;;;5098483;28;20517;-80
2023/12/25 14:24:50;;;;;;;3.55;0.40;;;;;;;;;;5098907;28;20456;-80
2023/12/25 14:27:18;;;;;;;6.15;0.50;;;;;;;;;;5098302;28;20112;-80
2023/12/25 14:29:44;;;;;;;4.88;0.57;;;;;;;;;;5097985;28;20130;-80
2023/12/25 14:32:10;;;;;;;4.95;0.55;;;;;;;;;;5080942;28;20096;-80
2023/12/25 14:34:36;;;;;;;5.53;0.50;;;;;;;;;;5098187;28;20083;-80